sensor_id;sensor_type;location;lat;lon;timestamp;P1;durP1;ratioP1;P2;durP2;ratioP2
76749;SDS011;66447;35.844;14.468;2023-09-19T00:02:08;7.73;;;4.33;;
76749;SDS011;66447;35.844;14.468;2023-09-19T00:17:09;6.87;;;4.70;;
76749;SDS011;66447;35.844;14.468;2023-09-19T00:32:09;6.55;;;4.53;;
76749;SDS011;66447;35.844;14.468;2023-09-19T00:47:10;7.68;;;4.40;;
76749;SDS011;66447;35.844;14.468;2023-09-19T01:02:16;6.03;;;4.40;;
76749;SDS011;66447;35.844;14.468;2023-09-19T01:17:22;4.22;;;2.47;;
76749;SDS011;66447;35.844;14.468;2023-09-19T01:32:27;4.03;;;1.93;;
76749;SDS011;66447;35.844;14.468;2023-09-19T01:47:49;4.90;;;1.87;;
76749;SDS011;66447;35.844;14.468;2023-09-19T02:02:55;2.80;;;1.50;;
76749;SDS011;66447;35.844;14.468;2023-09-19T02:17:58;3.30;;;1.77;;
76749;SDS011;66447;35.844;14.468;2023-09-19T02:32:59;4.20;;;1.90;;
76749;SDS011;66447;35.844;14.468;2023-09-19T02:48:06;2.63;;;1.70;;
76749;SDS011;66447;35.844;14.468;2023-09-19T03:03:07;3.93;;;1.80;;
76749;SDS011;66447;35.844;14.468;2023-09-19T03:18:08;5.93;;;2.40;;
76749;SDS011;66447;35.844;14.468;2023-09-19T03:33:09;4.40;;;2.90;;
76749;SDS011;66447;35.844;14.468;2023-09-19T03:48:12;8.70;;;3.40;;
76749;SDS011;66447;35.844;14.468;2023-09-19T04:03:13;8.07;;;4.17;;
76749;SDS011;66447;35.844;14.468;2023-09-19T04:18:19;10.17;;;3.90;;
76749;SDS011;66447;35.844;14.468;2023-09-19T04:33:20;9.00;;;4.50;;
76749;SDS011;66447;35.844;14.468;2023-09-19T04:48:22;7.77;;;4.80;;
76749;SDS011;66447;35.844;14.468;2023-09-19T05:03:25;14.00;;;5.50;;
76749;SDS011;66447;35.844;14.468;2023-09-19T05:18:26;24.10;;;6.10;;
76749;SDS011;66447;35.844;14.468;2023-09-19T05:33:27;23.80;;;6.00;;
76749;SDS011;66447;35.844;14.468;2023-09-19T05:48:28;24.73;;;5.80;;
76749;SDS011;66447;35.844;14.468;2023-09-19T06:03:29;26.48;;;6.88;;
76749;SDS011;66447;35.844;14.468;2023-09-19T06:18:31;13.17;;;4.10;;
76749;SDS011;66447;35.844;14.468;2023-09-19T06:33:33;20.37;;;3.93;;
76749;SDS011;66447;35.844;14.468;2023-09-19T06:48:34;30.15;;;3.63;;
76749;SDS011;66447;35.844;14.468;2023-09-19T07:03:35;56.93;;;8.57;;
76749;SDS011;66447;35.844;14.468;2023-09-19T07:18:36;33.67;;;4.03;;
76749;SDS011;66447;35.844;14.468;2023-09-19T07:33:37;11.38;;;2.03;;
76749;SDS011;66447;35.844;14.468;2023-09-19T07:48:38;7.18;;;1.80;;
76749;SDS011;66447;35.844;14.468;2023-09-19T08:03:40;13.57;;;2.10;;
76749;SDS011;66447;35.844;14.468;2023-09-19T08:18:42;3.70;;;1.60;;
76749;SDS011;66447;35.844;14.468;2023-09-19T08:33:43;14.83;;;2.33;;
76749;SDS011;66447;35.844;14.468;2023-09-19T08:48:53;6.33;;;1.73;;
76749;SDS011;66447;35.844;14.468;2023-09-19T09:04:02;15.27;;;4.17;;
76749;SDS011;66447;35.844;14.468;2023-09-19T09:19:04;7.27;;;1.70;;
76749;SDS011;66447;35.844;14.468;2023-09-19T09:34:05;8.90;;;1.73;;
76749;SDS011;66447;35.844;14.468;2023-09-19T09:49:07;8.30;;;1.73;;
76749;SDS011;66447;35.844;14.468;2023-09-19T10:04:29;18.20;;;4.80;;
76749;SDS011;66447;35.844;14.468;2023-09-19T10:19:45;5.60;;;1.60;;
76749;SDS011;66447;35.844;14.468;2023-09-19T10:34:53;6.67;;;1.60;;
76749;SDS011;66447;35.844;14.468;2023-09-19T10:49:55;7.70;;;1.43;;
76749;SDS011;66447;35.844;14.468;2023-09-19T11:05:00;8.03;;;1.60;;
76749;SDS011;66447;35.844;14.468;2023-09-19T11:35:14;6.13;;;2.17;;
76749;SDS011;66447;35.844;14.468;2023-09-19T12:06:14;17.97;;;2.53;;
76749;SDS011;66447;35.844;14.468;2023-09-19T12:21:31;9.63;;;2.10;;
76749;SDS011;66447;35.844;14.468;2023-09-19T12:36:32;4.03;;;1.67;;
76749;SDS011;66447;35.844;14.468;2023-09-19T12:51:34;10.67;;;2.73;;
76749;SDS011;66447;35.844;14.468;2023-09-19T13:06:36;15.87;;;2.60;;
76749;SDS011;66447;35.844;14.468;2023-09-19T13:36:49;13.10;;;3.10;;
76749;SDS011;66447;35.844;14.468;2023-09-19T13:51:50;9.93;;;4.03;;
76749;SDS011;66447;35.844;14.468;2023-09-19T14:06:51;6.03;;;1.80;;
76749;SDS011;66447;35.844;14.468;2023-09-19T14:21:52;13.65;;;3.60;;
76749;SDS011;66447;35.844;14.468;2023-09-19T14:36:55;7.63;;;3.90;;
76749;SDS011;66447;35.844;14.468;2023-09-19T14:51:56;9.70;;;4.20;;
76749;SDS011;66447;35.844;14.468;2023-09-19T15:06:57;13.20;;;4.50;;
76749;SDS011;66447;35.844;14.468;2023-09-19T15:21:59;9.00;;;4.80;;
76749;SDS011;66447;35.844;14.468;2023-09-19T15:37:01;16.07;;;5.47;;
76749;SDS011;66447;35.844;14.468;2023-09-19T15:52:02;12.45;;;5.70;;
76749;SDS011;66447;35.844;14.468;2023-09-19T16:07:03;12.23;;;6.07;;
76749;SDS011;66447;35.844;14.468;2023-09-19T16:22:04;11.20;;;6.53;;
76749;SDS011;66447;35.844;14.468;2023-09-19T16:37:05;17.50;;;10.18;;
76749;SDS011;66447;35.844;14.468;2023-09-19T16:52:06;18.10;;;9.48;;
76749;SDS011;66447;35.844;14.468;2023-09-19T17:07:07;16.63;;;10.00;;
76749;SDS011;66447;35.844;14.468;2023-09-19T17:22:07;18.27;;;10.43;;
76749;SDS011;66447;35.844;14.468;2023-09-19T17:37:08;18.80;;;10.97;;
76749;SDS011;66447;35.844;14.468;2023-09-19T17:52:10;15.87;;;11.63;;
76749;SDS011;66447;35.844;14.468;2023-09-19T18:07:11;18.73;;;12.05;;
76749;SDS011;66447;35.844;14.468;2023-09-19T18:22:12;16.63;;;10.98;;
76749;SDS011;66447;35.844;14.468;2023-09-19T18:37:13;21.07;;;10.70;;
76749;SDS011;66447;35.844;14.468;2023-09-19T18:52:14;25.10;;;9.98;;
76749;SDS011;66447;35.844;14.468;2023-09-19T19:07:15;16.60;;;8.30;;
76749;SDS011;66447;35.844;14.468;2023-09-19T19:22:21;20.50;;;10.63;;
76749;SDS011;66447;35.844;14.468;2023-09-19T19:37:22;18.57;;;10.23;;
76749;SDS011;66447;35.844;14.468;2023-09-19T19:52:26;17.73;;;6.63;;
76749;SDS011;66447;35.844;14.468;2023-09-19T20:07:29;20.67;;;5.30;;
76749;SDS011;66447;35.844;14.468;2023-09-19T20:22:30;17.17;;;4.60;;
76749;SDS011;66447;35.844;14.468;2023-09-19T20:37:32;15.67;;;4.83;;
76749;SDS011;66447;35.844;14.468;2023-09-19T20:52:35;19.03;;;6.10;;
76749;SDS011;66447;35.844;14.468;2023-09-19T21:07:36;17.83;;;8.20;;
76749;SDS011;66447;35.844;14.468;2023-09-19T21:22:41;20.03;;;8.43;;
76749;SDS011;66447;35.844;14.468;2023-09-19T21:37:42;21.57;;;8.70;;
76749;SDS011;66447;35.844;14.468;2023-09-19T21:52:43;21.52;;;11.10;;
76749;SDS011;66447;35.844;14.468;2023-09-19T22:07:43;24.58;;;11.35;;
76749;SDS011;66447;35.844;14.468;2023-09-19T22:22:45;21.47;;;9.67;;
76749;SDS011;66447;35.844;14.468;2023-09-19T22:37:46;24.63;;;8.77;;
76749;SDS011;66447;35.844;14.468;2023-09-19T22:52:49;19.90;;;7.33;;
76749;SDS011;66447;35.844;14.468;2023-09-19T23:07:50;25.43;;;6.10;;
76749;SDS011;66447;35.844;14.468;2023-09-19T23:22:57;24.60;;;5.67;;
76749;SDS011;66447;35.844;14.468;2023-09-19T23:37:58;24.17;;;5.47;;
76749;SDS011;66447;35.844;14.468;2023-09-19T23:53:01;22.33;;;5.27;;
